Time;durP1;ratioP1;P1;durP2;ratioP2;P2;SDS_P1;SDS_P2;PMS_P1;PMS_P2;Temp;Humidity;BMP_temperature;BMP_pressure;BME280_temperature;BME280_humidity;BME280_pressure;Samples;Min_cycle;Max_cycle;Signal;HPM_P1;HPM_P2
2021/11/19 00:01:11;;;;;;;22.03;13.03;;;;;;;3.67;100.00;97608.03;5008355;28;20021;-74
2021/11/19 00:03:39;;;;;;;24.30;13.07;;;;;;;3.69;100.00;97607.03;5013897;28;20039;-74
2021/11/19 00:06:05;;;;;;;24.10;12.77;;;;;;;3.68;100.00;97601.91;5023104;28;20566;-74
2021/11/19 00:08:31;;;;;;;20.03;12.87;;;;;;;3.65;100.00;97595.09;5026442;28;20045;-74
2021/11/19 00:10:59;;;;;;;22.00;13.50;;;;;;;3.69;100.00;97593.19;5029155;28;20370;-74
2021/11/19 00:13:25;;;;;;;23.20;12.70;;;;;;;3.68;100.00;97586.31;5017291;28;20052;-74
2021/11/19 00:15:51;;;;;;;26.90;13.83;;;;;;;3.67;100.00;97580.25;5013687;28;20044;-74
2021/11/19 00:18:18;;;;;;;24.07;12.37;;;;;;;3.73;100.00;97579.09;5030372;28;20111;-74
2021/11/19 00:20:45;;;;;;;21.27;13.47;;;;;;;3.75;100.00;97570.25;5040902;28;20081;-73
2021/11/19 00:23:11;;;;;;;21.70;13.80;;;;;;;3.76;100.00;97565.94;5017686;28;20139;-74
2021/11/19 00:25:37;;;;;;;21.97;13.27;;;;;;;3.77;100.00;97565.00;5020630;28;20116;-74
2021/11/19 00:28:04;;;;;;;22.77;14.07;;;;;;;3.79;100.00;97560.56;5037729;28;20025;-74
2021/11/19 00:30:34;;;;;;;19.10;13.10;;;;;;;3.75;100.00;97554.66;5025138;28;20559;-74
2021/11/19 00:33:01;;;;;;;22.53;15.10;;;;;;;3.80;100.00;97557.03;5001311;28;20101;-74
2021/11/19 00:35:28;;;;;;;21.40;13.60;;;;;;;3.81;100.00;97563.06;5002579;28;20340;-74
2021/11/19 00:37:56;;;;;;;25.47;14.60;;;;;;;3.80;100.00;97557.03;5041522;28;20033;-74
2021/11/19 00:40:37;;;;;;;22.77;13.37;;;;;;;3.77;100.00;97568.44;5020569;28;20476;-74
2021/11/19 00:43:04;;;;;;;20.83;13.17;;;;;;;3.84;100.00;97562.91;5032102;28;20395;-74
2021/11/19 00:45:31;;;;;;;18.23;11.87;;;;;;;3.76;100.00;97558.13;5014930;28;20031;-74
2021/11/19 00:47:58;;;;;;;20.33;13.87;;;;;;;3.77;100.00;97565.00;5015910;28;20036;-74
2021/11/19 00:50:32;;;;;;;21.07;12.57;;;;;;;3.80;100.00;97562.22;5039244;28;20071;-74
2021/11/19 00:52:58;;;;;;;20.63;12.70;;;;;;;3.84;100.00;97553.31;5022949;28;20065;-74
2021/11/19 00:55:25;;;;;;;20.77;12.23;;;;;;;3.84;100.00;97553.31;5011750;28;20045;-75
2021/11/19 00:57:51;;;;;;;24.40;13.33;;;;;;;3.78;100.00;97554.50;5009891;28;20061;-75
2021/11/19 01:00:21;;;;;;;22.77;13.57;;;;;;;3.79;100.00;97565.75;4990416;28;20048;-74
2021/11/19 01:02:48;;;;;;;19.30;12.47;;;;;;;3.87;100.00;97570.53;5028838;28;20037;-74
2021/11/19 01:05:15;;;;;;;24.73;13.67;;;;;;;3.89;100.00;97574.72;5017580;28;20029;-74
2021/11/19 01:07:41;;;;;;;21.23;12.90;;;;;;;3.81;100.00;97571.69;5018654;28;20033;-74
2021/11/19 01:10:14;;;;;;;22.90;13.90;;;;;;;3.82;100.00;97572.53;5017680;28;20017;-75
2021/11/19 01:12:41;;;;;;;20.03;13.17;;;;;;;3.78;100.00;97575.31;5005637;28;20041;-74
2021/11/19 01:15:09;;;;;;;21.13;13.33;;;;;;;3.72;100.00;97580.00;5028413;28;20025;-74
2021/11/19 01:17:44;;;;;;;22.13;12.10;;;;;;;3.73;100.00;97573.91;5006805;28;20065;-74
2021/11/19 01:20:18;;;;;;;19.70;12.77;;;;;;;3.77;100.00;97571.03;5020142;28;20105;-74
2021/11/19 01:22:48;;;;;;;19.53;13.37;;;;;;;3.73;100.00;97577.34;5014471;28;20092;-74
2021/11/19 01:25:17;;;;;;;21.23;12.87;;;;;;;3.70;100.00;97577.50;5029321;28;20033;-74
2021/11/19 01:27:43;;;;;;;21.20;13.03;;;;;;;3.70;100.00;97569.69;5010870;28;20041;-74
2021/11/19 01:30:14;;;;;;;19.93;12.67;;;;;;;3.75;100.00;97572.03;5016317;28;20082;-74
2021/11/19 01:32:40;;;;;;;25.03;14.07;;;;;;;3.68;100.00;97568.94;5006841;28;20491;-73
2021/11/19 01:35:29;;;;;;;21.03;13.17;;;;;;;3.67;100.00;97572.47;5007899;28;20082;-74
2021/11/19 01:38:13;;;;;;;24.67;14.20;;;;;;;3.66;100.00;97575.16;5040067;28;20076;-73
2021/11/19 01:40:51;;;;;;;20.67;12.90;;;;;;;3.64;100.00;97574.38;5020566;28;20446;-74
2021/11/19 01:43:27;;;;;;;20.70;12.67;;;;;;;3.65;100.00;97581.25;5021735;28;20040;-74
2021/11/19 01:45:57;;;;;;;22.13;13.20;;;;;;;3.62;100.00;97578.81;4994637;28;20033;-74
2021/11/19 01:48:27;;;;;;;19.67;12.87;;;;;;;3.64;100.00;97572.63;5015590;28;20033;-74
2021/11/19 01:51:05;;;;;;;21.40;12.80;;;;;;;3.63;100.00;97583.97;5002093;28;20029;-74
2021/11/19 01:53:44;;;;;;;19.67;12.47;;;;;;;3.67;100.00;97577.66;5012014;28;20506;-74
2021/11/19 01:56:20;;;;;;;21.73;12.97;;;;;;;3.66;100.00;97576.00;5025630;28;20095;-73
2021/11/19 01:58:55;;;;;;;19.73;12.40;;;;;;;3.63;100.00;97575.31;5012121;28;20459;-74
2021/11/19 02:06:40;;;;;;;17.93;11.60;;;;;;;3.55;100.00;97578.31;5013021;28;20525;-74
2021/11/19 02:09:31;;;;;;;17.53;11.70;;;;;;;3.52;100.00;97578.47;4997270;28;20053;-74
2021/11/19 02:12:16;;;;;;;20.50;11.83;;;;;;;3.49;100.00;97573.47;5005632;28;20120;-74
2021/11/19 02:15:02;;;;;;;19.43;11.27;;;;;;;3.50;100.00;97570.78;5000800;28;20029;-74
2021/11/19 02:17:28;;;;;;;19.40;12.03;;;;;;;3.50;100.00;97575.97;5000109;28;20038;-74
2021/11/19 02:19:58;;;;;;;18.60;11.17;;;;;;;3.56;100.00;97579.19;5038769;23;20127;-75
2021/11/19 02:22:54;;;;;;;19.87;12.63;;;;;;;3.54;100.00;97590.50;5014653;28;20091;-75
2021/11/19 02:25:34;;;;;;;21.37;12.67;;;;;;;3.50;100.00;97588.97;5025109;28;20086;-75
2021/11/19 02:28:05;;;;;;;18.07;12.37;;;;;;;3.54;100.00;97590.50;5024407;28;20712;-75
2021/11/19 02:30:56;;;;;;;18.90;11.93;;;;;;;3.58;100.00;97595.53;5000731;28;20116;-75
2021/11/19 02:33:24;;;;;;;18.63;11.87;;;;;;;3.70;100.00;97593.09;4995601;28;20037;-75
2021/11/19 02:35:53;;;;;;;16.13;10.63;;;;;;;3.62;100.00;97590.09;4995443;28;20025;-75
2021/11/19 02:38:35;;;;;;;18.87;10.73;;;;;;;3.59;100.00;97584.19;5004119;28;20481;-75
2021/11/19 02:41:03;;;;;;;17.30;10.43;;;;;;;3.61;100.00;97597.97;5000713;28;20040;-75
2021/11/19 02:43:34;;;;;;;15.37;10.30;;;;;;;3.60;100.00;97591.09;5043460;28;20025;-75
2021/11/19 02:46:00;;;;;;;17.47;9.97;;;;;;;3.60;100.00;97591.09;5029654;28;20034;-76
2021/11/19 02:48:31;;;;;;;13.80;9.90;;;;;;;3.60;100.00;97598.91;5004401;28;20052;-75
2021/11/19 02:51:02;;;;;;;17.23;9.93;;;;;;;3.67;100.00;97593.28;5018520;28;20044;-75
2021/11/19 02:53:28;;;;;;;17.00;9.17;;;;;;;3.65;100.00;97586.47;5006884;28;20032;-75
2021/11/19 02:55:58;;;;;;;16.17;10.70;;;;;;;3.63;100.00;97586.56;5025027;28;20017;-75
2021/11/19 02:58:33;;;;;;;15.87;10.50;;;;;;;3.68;100.00;97576.72;5024137;28;20026;-75
2021/11/19 03:01:09;;;;;;;18.50;10.50;;;;;;;3.67;100.00;97582.88;5025939;28;20025;-75
2021/11/19 03:03:37;;;;;;;24.10;11.10;;;;;;;3.67;100.00;97576.81;5037424;28;20025;-75
2021/11/19 03:06:04;;;;;;;17.83;10.73;;;;;;;3.64;100.00;97567.41;5003730;28;20079;-75
2021/11/19 03:08:30;;;;;;;18.97;10.10;;;;;;;3.67;100.00;97569.84;5011681;28;20048;-75
2021/11/19 03:10:58;;;;;;;17.07;10.40;;;;;;;3.69;100.00;97574.97;5031976;28;20025;-75
2021/11/19 03:13:27;;;;;;;17.53;10.10;;;;;;;3.65;100.00;97579.50;5029408;28;20111;-76
2021/11/19 03:15:54;;;;;;;20.37;11.07;;;;;;;3.65;100.00;97570.84;5029000;28;20059;-75
2021/11/19 03:18:23;;;;;;;15.00;9.13;;;;;;;3.64;100.00;97570.03;5020501;28;20033;-75
2021/11/19 03:20:53;;;;;;;18.73;9.87;;;;;;;3.64;100.00;97577.00;5021918;28;20398;-75
2021/11/19 03:23:19;;;;;;;13.83;8.43;;;;;;;3.66;100.00;97575.16;5027272;28;20112;-75
2021/11/19 03:25:46;;;;;;;18.53;9.97;;;;;;;3.65;100.00;97573.47;5005112;28;20021;-75
2021/11/19 03:28:14;;;;;;;17.53;10.43;;;;;;;3.65;100.00;97581.25;5020491;28;20051;-76
2021/11/19 03:30:42;;;;;;;16.27;9.47;;;;;;;3.73;100.00;97577.34;4994073;28;20614;-75
2021/11/19 03:33:12;;;;;;;17.03;9.53;;;;;;;3.69;100.00;97574.97;5017200;28;20175;-75
2021/11/19 03:35:40;;;;;;;18.20;10.53;;;;;;;3.72;100.00;97580.88;5017545;28;20071;-75
2021/11/19 03:38:07;;;;;;;17.73;9.27;;;;;;;3.68;100.00;97584.53;5023598;28;20032;-75
2021/11/19 03:40:36;;;;;;;15.13;9.17;;;;;;;3.72;100.00;97586.06;4999857;28;20483;-76
2021/11/19 03:43:06;;;;;;;17.13;9.40;;;;;;;3.69;100.00;97585.38;5019699;28;20032;-75
2021/11/19 03:45:39;;;;;;;16.17;9.30;;;;;;;3.74;100.00;97591.19;5011638;28;20397;-75
2021/11/19 03:48:06;;;;;;;20.03;10.33;;;;;;;3.67;100.00;97595.88;5004381;28;20044;-75
2021/11/19 03:50:46;;;;;;;22.03;10.33;;;;;;;3.73;100.00;97598.16;4998426;28;20124;-75
2021/11/19 03:53:15;;;;;;;22.73;11.77;;;;;;;3.78;100.00;97595.28;5024606;28;20081;-75
2021/11/19 03:55:49;;;;;;;21.70;10.83;;;;;;;3.85;100.00;97590.59;5002407;28;20017;-75
2021/11/19 03:58:17;;;;;;;22.98;11.93;;;;;;;3.73;100.00;97585.13;5020481;28;20041;-75
2021/11/19 04:00:47;;;;;;;25.63;12.00;;;;;;;3.73;100.00;97589.50;5036182;28;20222;-75
2021/11/19 04:03:15;;;;;;;27.00;12.93;;;;;;;3.64;100.00;97582.19;4997993;28;20518;-75
2021/11/19 04:05:43;;;;;;;20.73;11.67;;;;;;;3.76;100.00;97584.97;5019219;28;20026;-75
2021/11/19 04:08:09;;;;;;;22.70;10.83;;;;;;;3.70;100.00;97576.66;5004904;28;20038;-75
2021/11/19 04:10:43;;;;;;;21.27;11.30;;;;;;;3.74;100.00;97580.78;5007561;28;20456;-77
2021/11/19 04:13:09;;;;;;;27.60;12.03;;;;;;;3.71;100.00;97580.94;5025033;28;20115;-78
2021/11/19 04:15:42;;;;;;;29.40;13.20;;;;;;;3.76;100.00;97576.34;5033529;28;20132;-78
2021/11/19 04:18:09;;;;;;;30.40;11.60;;;;;;;3.74;100.00;97580.78;5027619;28;20024;-78
2021/11/19 04:20:36;;;;;;;28.10;11.73;;;;;;;3.71;100.00;97584.38;5012861;28;20468;-78
2021/11/19 04:23:02;;;;;;;21.50;11.27;;;;;;;3.74;100.00;97579.00;5014092;28;20033;-78
2021/11/19 04:25:30;;;;;;;21.83;10.13;;;;;;;3.72;100.00;97585.22;5033959;28;20021;-77
2021/11/19 04:27:56;;;;;;;23.47;11.10;;;;;;;3.76;100.00;97587.56;5028647;28;20504;-76
2021/11/19 04:30:45;;;;;;;23.63;11.93;;;;;;;3.84;100.00;97578.50;5023533;28;20103;-76
2021/11/19 04:33:11;;;;;;;21.00;10.73;;;;;;;3.81;100.00;97579.50;5000927;28;20030;-75
2021/11/19 04:35:38;;;;;;;24.80;12.57;;;;;;;3.83;100.00;97585.47;5024819;28;20501;-75
2021/11/19 04:38:04;;;;;;;23.70;11.27;;;;;;;3.83;100.00;97585.47;5027070;28;20025;-75
2021/11/19 04:40:34;;;;;;;23.50;11.23;;;;;;;3.82;100.00;97580.34;5020057;28;20046;-77
2021/11/19 04:42:59;;;;;;;24.13;11.33;;;;;;;3.77;100.00;97588.41;5025066;28;20021;-75
2021/11/19 04:45:28;;;;;;;25.60;12.23;;;;;;;3.78;100.00;97579.66;5040064;28;20682;-75
2021/11/19 04:47:55;;;;;;;27.43;12.07;;;;;;;3.79;100.00;97581.38;5023555;28;20497;-75
2021/11/19 04:50:24;;;;;;;23.37;11.93;;;;;;;3.77;100.00;97583.22;5041215;28;20044;-75
2021/11/19 04:52:51;;;;;;;25.83;11.63;;;;;;;3.72;100.00;97575.66;5022194;28;20025;-75
2021/11/19 04:55:18;;;;;;;32.87;11.90;;;;;;;3.70;100.00;97574.91;5043937;28;20140;-75
2021/11/19 04:57:44;;;;;;;22.03;11.07;;;;;;;3.74;100.00;97570.38;5018736;28;20025;-75
2021/11/19 05:00:16;;;;;;;18.17;10.90;;;;;;;3.72;100.00;97573.06;5029608;28;20116;-74
2021/11/19 05:03:02;;;;;;;17.27;9.90;;;;;;;3.66;100.00;97580.38;5027614;28;20109;-75
2021/11/19 05:05:33;;;;;;;23.47;11.83;;;;;;;3.59;100.00;97574.66;5000459;28;20099;-75
2021/11/19 05:08:00;;;;;;;16.07;10.00;;;;;;;3.60;100.00;97572.88;5009987;28;20032;-75
2021/11/19 05:10:26;;;;;;;18.10;11.27;;;;;;;3.47;100.00;97563.13;5038223;28;20105;-75
2021/11/19 05:12:55;;;;;;;17.07;11.63;;;;;;;3.44;100.00;97565.91;5031542;28;20088;-75
2021/11/19 05:15:22;;;;;;;16.93;11.80;;;;;;;3.35;100.00;97573.34;5014703;28;20033;-75
2021/11/19 05:17:48;;;;;;;17.47;12.33;;;;;;;3.29;100.00;97569.34;5031649;28;20048;-75
2021/11/19 05:20:17;;;;;;;16.10;11.67;;;;;;;3.27;100.00;97569.41;5018610;28;20393;-75
2021/11/19 05:22:44;;;;;;;16.00;12.03;;;;;;;3.21;100.00;97571.47;5017331;28;20501;-75
2021/11/19 05:25:14;;;;;;;17.37;12.17;;;;;;;3.07;100.00;97577.41;4998504;28;20022;-76
2021/11/19 05:27:40;;;;;;;16.53;11.07;;;;;;;3.02;100.00;97582.84;5014350;28;20033;-75
2021/11/19 05:30:08;;;;;;;18.10;12.07;;;;;;;2.96;100.00;97583.16;4999018;28;20022;-75
2021/11/19 05:32:50;;;;;;;18.65;13.25;;;;;;;2.86;100.00;97583.72;5007517;28;20079;-75
2021/11/19 05:35:17;;;;;;;17.87;12.20;;;;;;;2.78;100.00;97586.69;5000350;28;20029;-75
2021/11/19 05:37:43;;;;;;;20.87;14.03;;;;;;;2.76;100.00;97591.16;5014020;28;20087;-75
2021/11/19 05:40:12;;;;;;;23.07;13.53;;;;;;;2.72;100.00;97587.03;5009897;28;20025;-75
2021/11/19 05:42:39;;;;;;;21.40;14.40;;;;;;;2.63;100.00;97598.72;5028496;28;20025;-75
2021/11/19 05:45:07;;;;;;;19.63;13.33;;;;;;;2.60;100.00;97599.69;5019439;28;20026;-75
2021/11/19 05:47:52;;;;;;;19.17;13.83;;;;;;;2.47;100.00;97600.38;5035190;28;20097;-75
2021/11/19 05:50:23;;;;;;;21.07;14.00;;;;;;;2.41;100.00;97588.53;5021595;28;20034;-75
2021/11/19 05:52:49;;;;;;;22.13;14.57;;;;;;;2.41;100.00;97588.53;5003946;28;20057;-74
2021/11/19 05:55:19;;;;;;;28.87;18.10;;;;;;;2.32;100.00;97596.78;5017639;28;20113;-74
2021/11/19 05:57:46;;;;;;;22.80;14.87;;;;;;;2.27;100.00;97597.00;5003780;28;20033;-75
2021/11/19 06:00:20;;;;;;;20.77;14.73;;;;;;;2.20;100.00;97597.38;5004598;28;20609;-75
2021/11/19 06:02:49;;;;;;;19.60;13.00;;;;;;;2.21;100.00;97591.25;5017192;28;20075;-75
2021/11/19 06:05:32;;;;;;;24.03;17.53;;;;;;;2.16;100.00;97598.44;5016882;28;20041;-75
2021/11/19 06:08:17;;;;;;;35.90;22.77;;;;;;;2.18;100.00;97600.06;5020788;28;20043;-75
2021/11/19 06:10:51;;;;;;;39.93;22.93;;;;;;;2.20;100.00;97606.00;5016868;28;20040;-75
2021/11/19 06:13:21;;;;;;;28.07;17.57;;;;;;;2.16;100.00;97606.22;5019255;28;20521;-75
2021/11/19 06:15:50;;;;;;;37.73;24.10;;;;;;;2.23;100.00;97603.25;5030779;28;20031;-75
2021/11/19 06:18:24;;;;;;;48.20;26.87;;;;;;;2.20;100.00;97595.63;5022992;28;20402;-75
2021/11/19 06:20:53;;;;;;;43.37;25.73;;;;;;;2.33;100.00;97603.66;4999806;28;20021;-75
2021/11/19 06:23:27;;;;;;;44.37;24.20;;;;;;;2.27;100.00;97606.53;5005221;28;20512;-75
2021/11/19 06:25:54;;;;;;;35.47;22.08;;;;;;;2.32;100.00;97612.38;5024153;28;20059;-75
2021/11/19 06:28:24;;;;;;;42.50;25.57;;;;;;;2.36;100.00;97611.28;5014876;28;20095;-75
2021/11/19 06:30:50;;;;;;;40.17;24.13;;;;;;;2.39;100.00;97611.16;5021938;28;20041;-75
2021/11/19 06:33:19;;;;;;;34.63;21.97;;;;;;;2.43;100.00;97611.84;5013049;28;20059;-75
2021/11/19 06:35:47;;;;;;;35.80;22.70;;;;;;;2.42;100.00;97616.19;5019797;28;20035;-75
2021/11/19 06:38:13;;;;;;;36.90;21.93;;;;;;;2.39;100.00;97616.34;5017670;28;20025;-76
2021/11/19 06:40:48;;;;;;;33.30;20.37;;;;;;;2.45;100.00;97620.38;4998995;28;20948;-76
2021/11/19 06:43:34;;;;;;;24.00;15.53;;;;;;;2.41;100.00;97631.84;5031116;28;20047;-76
2021/11/19 06:46:20;;;;;;;24.50;16.37;;;;;;;2.43;100.00;97625.66;5002478;28;20036;-76
2021/11/19 06:49:11;;;;;;;24.53;15.47;;;;;;;2.44;100.00;97635.13;5032173;28;20430;-76
2021/11/19 06:51:55;;;;;;;22.37;15.27;;;;;;;2.46;100.00;97638.50;5024949;28;20801;-75
2021/11/19 06:54:21;;;;;;;35.33;16.07;;;;;;;2.46;100.00;97635.91;5024526;28;20025;-75
2021/11/19 06:57:13;;;;;;;32.67;16.13;;;;;;;2.45;100.00;97641.16;5031005;28;20096;-76
2021/11/19 06:59:42;;;;;;;30.17;15.53;;;;;;;2.49;100.00;97633.16;5002849;28;20437;-76
2021/11/19 07:02:10;;;;;;;29.70;17.60;;;;;;;2.51;100.00;97633.91;5029444;28;20040;-76
2021/11/19 07:04:36;;;;;;;32.07;16.10;;;;;;;2.50;100.00;97640.00;5011801;28;20555;-76
2021/11/19 07:07:06;;;;;;;42.27;19.67;;;;;;;2.49;100.00;97642.69;5018267;28;20037;-76
2021/11/19 07:09:35;;;;;;;36.97;19.13;;;;;;;2.48;100.00;97643.59;5029601;28;20037;-76
2021/11/19 07:12:01;;;;;;;37.20;19.17;;;;;;;2.50;100.00;97642.63;5015948;28;20052;-76
2021/11/19 07:14:35;;;;;;;31.37;16.73;;;;;;;2.55;100.00;97643.25;4998354;28;20521;-76
2021/11/19 07:17:04;;;;;;;39.70;19.40;;;;;;;2.56;100.00;97652.72;5003877;28;20104;-76
2021/11/19 07:19:32;;;;;;;35.33;18.80;;;;;;;2.59;100.00;97649.13;5008041;28;20067;-75
2021/11/19 07:21:58;;;;;;;35.37;18.67;;;;;;;2.57;100.00;97659.56;5035956;28;20075;-75
2021/11/19 07:24:24;;;;;;;37.67;18.07;;;;;;;2.59;100.00;97659.50;5023342;28;20030;-76
2021/11/19 07:26:52;;;;;;;34.27;17.30;;;;;;;2.66;100.00;97650.50;5019902;28;20037;-76
2021/11/19 07:29:19;;;;;;;35.70;18.10;;;;;;;2.71;100.00;97663.25;5017014;28;20029;-75
2021/11/19 07:31:57;;;;;;;39.43;17.63;;;;;;;2.69;100.00;97665.94;5031038;28;20025;-76
2021/11/19 07:34:41;;;;;;;41.47;19.80;;;;;;;2.68;100.00;97661.63;5024261;28;20098;-76
2021/11/19 07:37:27;;;;;;;41.10;17.63;;;;;;;2.69;100.00;97667.69;5037334;28;20042;-76
2021/11/19 07:40:06;;;;;;;40.30;18.73;;;;;;;2.75;100.00;97665.63;5008035;28;20026;-76
2021/11/19 07:42:50;;;;;;;37.77;18.17;;;;;;;2.87;100.00;97668.53;5024677;28;20036;-76
2021/11/19 07:45:20;;;;;;;41.47;18.13;;;;;;;2.90;100.00;97673.59;5009088;28;20514;-76
2021/11/19 07:47:53;;;;;;;;;;;;;;;2.93;100.00;97678.63;5015211;28;20032;-76
2021/11/19 07:50:23;;;;;;;37.67;17.53;;;;;;;2.93;100.00;97671.66;5007459;28;19916;-76
2021/11/19 07:52:49;;;;;;;34.03;16.80;;;;;;;2.99;100.00;97673.13;5015459;28;20086;-76
2021/11/19 07:55:15;;;;;;;40.63;19.13;;;;;;;2.99;100.00;97673.13;5015858;28;20150;-76
2021/11/19 07:57:41;;;;;;;30.67;16.60;;;;;;;3.09;100.00;97670.91;5019526;28;20116;-76
2021/11/19 08:00:13;;;;;;;33.67;16.73;;;;;;;3.07;100.00;97671.81;5020486;28;20397;-76
2021/11/19 08:02:52;;;;;;;36.00;16.17;;;;;;;3.09;100.00;97673.50;5005650;28;20485;-76
2021/11/19 08:05:19;;;;;;;34.67;16.27;;;;;;;3.07;100.00;97674.41;5020200;28;20076;-76
2021/11/19 08:08:04;;;;;;;41.47;16.13;;;;;;;3.20;100.00;97673.78;5038705;28;20032;-76
2021/11/19 08:10:33;;;;;;;48.77;18.57;;;;;;;3.15;100.00;97673.19;5002808;28;20038;-76
2021/11/19 08:12:59;;;;;;;35.97;17.03;;;;;;;3.16;100.00;97667.06;5009183;28;20029;-76
2021/11/19 08:15:29;;;;;;;38.97;18.70;;;;;;;3.19;100.00;97666.94;5011510;28;20437;-75
2021/11/19 08:17:57;;;;;;;38.37;16.90;;;;;;;3.23;100.00;97671.03;5001984;28;20670;-76
2021/11/19 08:20:37;;;;;;;42.00;18.40;;;;;;;3.22;100.00;97670.22;5016138;28;20066;-75
2021/11/19 08:23:08;;;;;;;40.57;18.27;;;;;;;3.27;100.00;97657.78;5012063;28;20036;-75
2021/11/19 08:25:34;;;;;;;39.10;17.67;;;;;;;3.25;100.00;97663.97;5004425;28;20041;-76
2021/11/19 08:28:01;;;;;;;38.27;15.27;;;;;;;3.26;100.00;97670.88;5021435;28;20032;-76
2021/11/19 08:30:35;;;;;;;40.63;18.03;;;;;;;3.29;100.00;97673.34;5011284;28;20056;-76
2021/11/19 08:33:04;;;;;;;35.67;16.63;;;;;;;3.35;100.00;97665.19;5010999;28;20136;-75
2021/11/19 08:35:30;;;;;;;35.97;17.07;;;;;;;3.39;100.00;97663.31;4997328;28;20114;-75
2021/11/19 08:37:57;;;;;;;38.27;15.97;;;;;;;3.33;100.00;97664.44;5023457;28;20425;-75
2021/11/19 08:40:24;;;;;;;37.13;16.90;;;;;;;3.37;100.00;97658.16;5022733;28;20028;-76
2021/11/19 08:42:50;;;;;;;38.23;17.57;;;;;;;3.39;100.00;97664.13;5046343;28;20982;-76
2021/11/19 08:45:19;;;;;;;38.23;16.97;;;;;;;3.46;100.00;97655.09;5045907;28;20024;-75
2021/11/19 08:47:49;;;;;;;40.90;17.13;;;;;;;3.49;100.00;97651.50;5023430;28;20033;-76
2021/11/19 08:50:16;;;;;;;38.67;15.30;;;;;;;3.47;100.00;97654.16;5035155;28;20132;-75
2021/11/19 08:52:42;;;;;;;38.63;15.90;;;;;;;3.49;100.00;97665.34;5025129;28;20132;-76
2021/11/19 08:55:10;;;;;;;32.17;17.40;;;;;;;3.57;100.00;97677.09;5026230;28;20021;-75
2021/11/19 08:57:36;;;;;;;37.63;17.90;;;;;;;3.68;100.00;97680.78;5039318;28;20048;-75
2021/11/19 09:00:08;;;;;;;34.37;17.37;;;;;;;3.65;100.00;97672.31;5009891;28;20434;-76
2021/11/19 09:02:34;;;;;;;31.93;15.63;;;;;;;3.72;100.00;97663.25;5026410;28;21392;-75
2021/11/19 09:05:00;;;;;;;33.83;15.53;;;;;;;3.80;100.00;97662.88;5013596;28;20064;-76
2021/11/19 09:07:27;;;;;;;32.47;17.33;;;;;;;3.69;100.00;97666.88;5020870;28;20087;-76
2021/11/19 09:09:55;;;;;;;36.40;17.83;;;;;;;3.75;100.00;97669.13;5024242;28;20026;-76
2021/11/19 09:12:21;;;;;;;44.00;17.33;;;;;;;3.81;100.00;97672.34;5014713;28;20478;-75
2021/11/19 09:14:46;;;;;;;36.80;16.13;;;;;;;3.77;100.00;97676.88;5037025;28;20063;-75
2021/11/19 09:17:29;;;;;;;32.70;16.50;;;;;;;3.77;100.00;97672.50;5008644;28;20036;-76
2021/11/19 09:19:59;;;;;;;35.72;16.27;;;;;;;3.74;100.00;97677.03;5036103;28;20063;-75
2021/11/19 09:22:46;;;;;;;35.93;17.33;;;;;;;3.80;100.00;97674.13;5025292;28;20505;-76
2021/11/19 09:25:15;;;;;;;37.50;16.33;;;;;;;3.85;100.00;97672.09;5036301;28;20029;-75
2021/11/19 09:27:42;;;;;;;36.10;16.17;;;;;;;3.84;100.00;97675.63;5036322;28;20033;-77
2021/11/19 09:30:16;;;;;;;32.73;15.93;;;;;;;3.87;100.00;97678.06;5036147;28;20029;-77
2021/11/19 09:32:48;;;;;;;37.47;17.45;;;;;;;3.90;100.00;97662.28;5001320;28;20029;-74
2021/11/19 09:35:15;;;;;;;36.03;16.20;;;;;;;3.81;100.00;97660.16;5033454;28;20029;-76
2021/11/19 09:37:42;;;;;;;35.33;16.47;;;;;;;3.89;100.00;97662.34;4989365;28;20465;-75
2021/11/19 09:40:10;;;;;;;37.33;17.53;;;;;;;3.90;100.00;97659.69;5003089;28;20029;-75
2021/11/19 09:42:54;;;;;;;33.37;16.03;;;;;;;3.92;100.00;97665.66;5007616;28;20018;-76
2021/11/19 09:45:47;;;;;;;39.20;18.20;;;;;;;3.90;100.00;97675.31;5010483;28;20033;-75
2021/11/19 09:48:31;;;;;;;38.42;16.02;;;;;;;3.93;100.00;97669.09;5005804;28;20120;-76
2021/11/19 09:51:45;;;;;;;37.20;17.93;;;;;;;3.90;100.00;97664.88;5030417;28;20040;-76
2021/11/19 09:54:38;;;;;;;37.05;16.83;;;;;;;4.00;100.00;97655.66;4977657;28;20045;-77
2021/11/19 09:57:45;;;;;;;36.03;16.97;;;;;;;4.12;100.00;97658.50;5036232;28;20565;-75
2021/11/19 10:00:39;;;;;;;35.97;16.40;;;;;;;4.10;100.00;97653.41;5028459;28;20343;-77
2021/11/19 10:03:18;;;;;;;32.67;15.05;;;;;;;3.99;100.00;97648.78;5020726;28;20076;-75
2021/11/19 10:05:59;;;;;;;31.87;16.20;;;;;;;4.15;100.00;97645.31;4998944;28;20110;-75
2021/11/19 10:08:46;;;;;;;32.87;16.60;;;;;;;4.10;100.00;97642.16;5046254;28;20029;-75
2021/11/19 10:11:21;;;;;;;30.50;15.07;;;;;;;4.12;100.00;97650.69;5012253;28;20520;-78
2021/11/19 10:14:23;;;;;;;31.67;15.27;;;;;;;4.31;100.00;97661.78;5007256;28;20029;-76
2021/11/19 10:17:03;;;;;;;33.77;16.57;;;;;;;4.27;100.00;97649.84;5015154;28;20040;-75
2021/11/19 10:19:45;;;;;;;33.60;14.63;;;;;;;4.23;100.00;97643.97;5017396;28;20521;-75
2021/11/19 10:22:27;;;;;;;25.70;14.07;;;;;;;4.20;100.00;97643.31;5043930;28;20063;-75
2021/11/19 10:25:12;;;;;;;31.07;14.57;;;;;;;4.09;100.00;97650.84;5015815;28;20037;-77
2021/11/19 10:27:46;;;;;;;29.47;14.30;;;;;;;4.30;100.00;97646.25;5026690;28;20029;-79
2021/11/19 10:30:40;;;;;;;25.50;13.03;;;;;;;4.30;100.00;97615.84;5017174;28;20245;-75
2021/11/19 10:33:18;;;;;;;32.27;16.20;;;;;;;4.40;100.00;97624.81;4993414;28;20034;-75
2021/11/19 10:35:59;;;;;;;28.97;15.23;;;;;;;4.36;100.00;97630.25;5023348;28;20029;-77
2021/11/19 10:38:47;;;;;;;28.03;14.90;;;;;;;4.45;100.00;97617.56;5008605;28;20036;-75
2021/11/19 10:41:36;;;;;;;28.87;14.17;;;;;;;4.77;100.00;97617.47;5036013;28;20441;-76
2021/11/19 10:44:42;;;;;;;29.37;13.97;;;;;;;4.59;100.00;97613.31;5012467;28;20662;-77
2021/11/19 10:47:33;;;;;;;30.90;16.40;;;;;;;4.56;100.00;97605.69;5020945;28;20385;-75
2021/11/19 10:50:17;;;;;;;36.57;14.77;;;;;;;4.48;100.00;97612.16;5015939;28;20129;-75
2021/11/19 10:53:10;;;;;;;29.93;14.37;;;;;;;4.58;100.00;97614.25;5021863;28;20025;-77
2021/11/19 10:56:00;;;;;;;28.73;14.63;;;;;;;4.66;100.00;97620.72;5036890;28;20029;-75
2021/11/19 10:58:44;;;;;;;33.17;15.60;;;;;;;4.61;100.00;97619.28;5015633;28;20029;-76
2021/11/19 11:01:49;;;;;;;29.88;15.55;;;;;;;4.61;100.00;97611.47;5022486;28;20049;-75
2021/11/19 11:04:18;;;;;;;25.07;14.60;;;;;;;4.61;100.00;97601.88;5002301;28;20041;-75
2021/11/19 11:06:46;;;;;;;26.03;14.67;;;;;;;4.54;100.00;97595.34;5026567;28;20425;-79
2021/11/19 11:09:17;;;;;;;30.90;14.90;;;;;;;4.48;100.00;97598.31;5012430;28;20036;-76
2021/11/19 11:11:43;;;;;;;28.70;14.10;;;;;;;4.61;100.00;97591.47;5024898;28;20026;-77
2021/11/19 11:14:08;;;;;;;28.53;16.07;;;;;;;4.79;100.00;97589.53;5032075;28;20037;-74
2021/11/19 11:16:41;;;;;;;34.70;15.63;;;;;;;5.60;100.00;97594.22;4998784;28;20128;-73
2021/11/19 11:19:10;;;;;;;29.03;14.27;;;;;;;5.03;100.00;97607.28;5019556;28;20033;-75
2021/11/19 11:21:57;;;;;;;24.77;13.33;;;;;;;4.92;100.00;97606.13;5032532;28;20490;-75
2021/11/19 11:24:30;;;;;;;32.63;14.30;;;;;;;5.13;100.00;97592.75;5026234;28;20098;-77
2021/11/19 11:26:58;;;;;;;25.48;12.45;;;;;;;5.29;100.00;97588.28;5034983;28;20029;-75
2021/11/19 11:29:37;;;;;;;22.53;13.03;;;;;;;5.28;100.00;97596.22;5018422;28;20425;-76
2021/11/19 11:32:28;;;;;;;27.80;15.43;;;;;;;5.40;100.00;97593.72;5039048;28;20025;-75
2021/11/19 11:34:59;;;;;;;34.00;18.17;;;;;;;5.47;100.00;97595.94;4999254;28;20087;-75
2021/11/19 11:37:44;;;;;;;27.00;13.63;;;;;;;5.52;100.00;97593.88;5032879;28;20034;-75
2021/11/19 11:40:25;;;;;;;28.37;12.77;;;;;;;5.26;100.00;97592.84;5010159;28;20030;-76
2021/11/19 11:43:14;;;;;;;29.47;14.00;;;;;;;5.15;100.00;97580.47;5034355;28;20028;-75
2021/11/19 11:45:44;;;;;;;20.97;12.77;;;;;;;5.47;100.00;97582.91;5009565;28;20113;-76
2021/11/19 11:48:45;;;;;;;21.83;11.90;;;;;;;5.63;100.00;97586.22;5022468;28;20040;-75